createdAt,value
2023-04-15T00:00:05.999Z,58.5299
2023-04-15T00:01:06.334Z,58.4946
2023-04-15T00:02:06.645Z,58.4406
2023-04-15T00:03:07.037Z,58.4100
2023-04-15T00:04:07.782Z,58.4034
2023-04-15T00:05:08.187Z,58.3801
2023-04-15T00:06:08.550Z,58.3415
2023-04-15T00:07:08.877Z,58.3253
2023-04-15T00:08:09.156Z,58.3532
2023-04-15T00:09:09.528Z,58.4007
2023-04-15T00:10:09.823Z,58.3975
2023-04-15T00:11:10.075Z,58.3956
2023-04-15T00:12:10.389Z,58.4029
2023-04-15T00:13:10.676Z,58.3757
2023-04-15T00:14:10.969Z,58.3625
2023-04-15T00:15:11.229Z,58.3279
2023-04-15T00:16:11.507Z,58.3178
2023-04-15T00:17:11.741Z,58.3033
2023-04-15T00:18:12.038Z,58.2825
2023-04-15T00:19:12.337Z,58.2854
2023-04-15T00:20:12.637Z,58.2803
2023-04-15T00:21:12.928Z,58.2698
2023-04-15T00:22:13.231Z,58.2385
2023-04-15T00:23:13.470Z,58.2016
2023-04-15T00:24:13.767Z,58.1585
2023-04-15T00:25:14.080Z,58.1383
2023-04-15T00:26:14.344Z,58.1195
2023-04-15T00:27:14.669Z,58.1052
2023-04-15T00:28:14.964Z,58.0845
2023-04-15T00:29:15.244Z,58.0651
2023-04-15T00:30:15.559Z,58.0572
2023-04-15T00:31:15.947Z,58.0483
2023-04-15T00:32:16.258Z,58.0532
2023-04-15T00:33:16.508Z,58.0887
2023-04-15T00:34:16.791Z,58.1134
2023-04-15T00:35:17.129Z,58.1379
2023-04-15T00:36:17.416Z,58.1393
2023-04-15T00:37:17.755Z,58.1184
2023-04-15T00:38:18.026Z,58.0827
2023-04-15T00:39:18.296Z,58.0510
2023-04-15T00:40:18.576Z,58.0377
2023-04-15T00:41:18.860Z,58.0569
2023-04-15T00:42:19.101Z,58.2185
2023-04-15T00:43:19.381Z,58.2923
2023-04-15T00:44:19.920Z,58.2872
2023-04-15T00:45:20.252Z,58.2711
2023-04-15T00:46:20.675Z,58.2409
2023-04-15T00:47:21.036Z,58.2395
2023-04-15T00:48:21.360Z,58.2771
2023-04-15T00:49:21.579Z,58.3376
2023-04-15T00:50:21.860Z,58.4148
2023-04-15T00:51:22.114Z,58.4474
2023-04-15T00:52:22.437Z,58.4702
2023-04-15T00:53:22.816Z,58.4960
2023-04-15T00:54:23.140Z,58.5425
2023-04-15T00:55:23.421Z,58.5514
2023-04-15T00:56:23.689Z,58.5444
2023-04-15T00:57:23.999Z,58.5306
2023-04-15T00:58:24.340Z,58.5283
2023-04-15T00:59:24.623Z,58.5481
2023-04-15T01:00:24.963Z,58.5399
2023-04-15T01:01:25.164Z,58.5337
2023-04-15T01:02:25.483Z,58.5105
2023-04-15T01:03:25.947Z,58.4520
2023-04-15T01:04:26.564Z,58.4786
2023-04-15T01:05:26.894Z,58.6346
2023-04-15T01:06:27.173Z,58.7134
2023-04-15T01:07:27.400Z,58.7424
2023-04-15T01:08:27.697Z,58.7309
2023-04-15T01:09:27.979Z,58.7272
2023-04-15T01:10:28.244Z,58.7116
2023-04-15T01:11:28.528Z,58.6853
2023-04-15T01:12:28.736Z,58.7168
2023-04-15T01:13:29.023Z,58.8879
2023-04-15T01:14:29.316Z,58.9991
2023-04-15T01:15:29.629Z,59.0698
2023-04-15T01:16:29.983Z,59.1187
2023-04-15T01:17:30.235Z,59.1672
2023-04-15T01:18:30.484Z,59.1857
2023-04-15T01:19:30.753Z,59.2089
2023-04-15T01:20:31.071Z,59.1911
2023-04-15T01:21:31.361Z,59.1464
2023-04-15T01:22:31.665Z,59.0957
2023-04-15T01:23:31.916Z,59.0483
2023-04-15T01:24:34.326Z,59.0008
2023-04-15T01:25:36.131Z,58.9619
2023-04-15T01:26:36.445Z,58.8943
2023-04-15T01:27:36.719Z,58.8507
2023-04-15T01:28:37.050Z,58.7994
2023-04-15T01:29:37.316Z,58.7400
2023-04-15T01:30:37.588Z,58.6980
2023-04-15T01:31:37.936Z,58.6654
2023-04-15T01:32:38.322Z,58.6149
2023-04-15T01:33:38.629Z,58.5500
2023-04-15T01:34:38.924Z,58.4909
2023-04-15T01:35:39.199Z,58.5556
2023-04-15T01:36:39.478Z,58.7124
2023-04-15T01:37:39.762Z,58.7490
2023-04-15T01:38:40.042Z,58.9478
2023-04-15T01:39:40.328Z,59.6050
2023-04-15T01:40:40.556Z,60.0034
2023-04-15T01:41:40.835Z,60.1835
2023-04-15T01:42:41.147Z,60.3132
2023-04-15T01:43:41.391Z,60.2391
2023-04-15T01:44:41.672Z,60.0573
2023-04-15T01:45:41.900Z,59.8906
2023-04-15T01:46:42.155Z,59.8780
2023-04-15T01:47:42.481Z,59.9246
2023-04-15T01:48:42.730Z,59.9773
2023-04-15T01:49:42.959Z,60.0818
2023-04-15T01:50:43.237Z,60.0114
2023-04-15T01:51:43.542Z,59.9067
2023-04-15T01:52:43.918Z,59.8079
2023-04-15T01:53:44.265Z,59.7179
2023-04-15T01:54:44.629Z,59.8890
2023-04-15T01:55:44.939Z,60.0747
2023-04-15T01:56:45.271Z,60.0910
2023-04-15T01:57:45.610Z,60.1652
2023-04-15T01:58:46.040Z,60.1137
2023-04-15T01:59:46.353Z,60.0202
2023-04-15T02:00:46.702Z,59.9503
2023-04-15T02:01:47.018Z,59.8869
2023-04-15T02:02:47.339Z,59.8716
2023-04-15T02:03:47.891Z,60.0063
2023-04-15T02:04:48.524Z,59.9526
2023-04-15T02:05:48.816Z,59.8954
2023-04-15T02:06:49.170Z,59.9101
2023-04-15T02:07:49.471Z,59.9409
2023-04-15T02:08:49.739Z,59.9816
2023-04-15T02:09:50.106Z,59.9790
2023-04-15T02:10:50.456Z,59.9347
2023-04-15T02:11:50.779Z,59.8763
2023-04-15T02:12:51.075Z,59.8809
2023-04-15T02:13:51.410Z,59.8968
2023-04-15T02:14:51.753Z,59.8560
2023-04-15T02:15:52.237Z,59.7993
2023-04-15T02:16:52.623Z,59.7949
2023-04-15T02:17:52.984Z,59.9157
2023-04-15T02:18:53.329Z,60.0614
2023-04-15T02:19:53.657Z,60.1088
2023-04-15T02:20:53.953Z,60.1011
2023-04-15T02:21:54.281Z,60.0514
2023-04-15T02:22:54.599Z,59.9969
2023-04-15T02:23:54.916Z,59.9713
2023-04-15T02:24:55.222Z,59.9678
2023-04-15T02:25:55.586Z,60.1004
2023-04-15T02:26:55.934Z,60.2545
2023-04-15T02:27:56.209Z,60.2423
2023-04-15T02:28:56.576Z,60.1871
2023-04-15T02:29:56.907Z,60.1482
2023-04-15T02:30:57.320Z,60.1633
2023-04-15T02:31:57.783Z,60.3710
2023-04-15T02:32:58.134Z,60.5048
2023-04-15T02:33:58.444Z,60.6180
2023-04-15T02:34:58.779Z,60.7875
2023-04-15T02:35:59.076Z,60.9029
2023-04-15T02:36:59.384Z,61.0312
2023-04-15T02:37:59.629Z,61.2329
2023-04-15T02:39:00.127Z,61.2944
2023-04-15T02:40:00.661Z,61.2474
2023-04-15T02:41:00.907Z,61.1807
2023-04-15T02:42:01.293Z,61.1272
2023-04-15T02:43:01.542Z,61.1047
2023-04-15T02:44:01.910Z,61.2130
2023-04-15T02:45:02.349Z,61.3149
2023-04-15T02:46:02.853Z,61.4325
2023-04-15T02:47:03.287Z,61.4832
2023-04-15T02:48:03.617Z,61.6396
2023-04-15T02:49:03.914Z,61.8700
2023-04-15T02:50:04.266Z,61.8935
2023-04-15T02:51:04.563Z,61.9096
2023-04-15T02:52:04.848Z,61.8619
2023-04-15T02:53:05.173Z,61.8257
2023-04-15T02:54:05.488Z,61.7861
2023-04-15T02:55:05.796Z,62.0817
2023-04-15T02:56:06.137Z,62.2054
2023-04-15T02:57:06.458Z,62.2831
2023-04-15T02:58:06.816Z,62.2681
2023-04-15T02:59:07.154Z,62.2221
2023-04-15T03:00:07.475Z,62.1379
2023-04-15T03:01:08.128Z,62.2060
2023-04-15T03:02:08.817Z,62.2957
2023-04-15T03:03:09.276Z,62.2420
2023-04-15T03:04:09.723Z,62.1646
2023-04-15T03:05:10.153Z,62.0760
2023-04-15T03:06:10.416Z,62.1358
2023-04-15T03:07:10.753Z,62.4367
2023-04-15T03:08:11.030Z,62.5881
2023-04-15T03:09:11.357Z,62.6401
2023-04-15T03:10:11.693Z,62.6393
2023-04-15T03:11:13.175Z,62.8078
2023-04-15T03:12:13.503Z,62.8733
2023-04-15T03:13:13.849Z,62.9669
2023-04-15T03:14:14.138Z,63.0528
2023-04-15T03:15:14.499Z,63.0298
2023-04-15T03:16:14.868Z,63.0403
2023-04-15T03:17:15.198Z,62.9998
2023-04-15T03:18:15.491Z,62.9662
2023-04-15T03:19:15.849Z,62.9173
2023-04-15T03:20:16.243Z,62.9388
2023-04-15T03:21:16.661Z,62.9178
2023-04-15T03:22:17.001Z,62.8252
2023-04-15T03:23:17.315Z,62.8010
2023-04-15T03:24:17.678Z,62.8112
2023-04-15T03:25:17.969Z,62.7420
2023-04-15T03:26:18.283Z,62.6775
2023-04-15T03:27:18.606Z,62.5989
2023-04-15T03:28:19.094Z,62.5203
2023-04-15T03:29:19.626Z,62.4761
2023-04-15T03:30:19.946Z,62.5027
2023-04-15T03:31:20.315Z,62.5005
2023-04-15T03:32:20.640Z,62.5288
2023-04-15T03:33:20.985Z,62.5884
2023-04-15T03:34:21.367Z,62.7167
2023-04-15T03:35:21.730Z,62.8109
2023-04-15T03:36:22.052Z,62.7793
2023-04-15T03:37:22.381Z,62.7071
2023-04-15T03:38:22.662Z,62.6953
2023-04-15T03:39:22.974Z,62.6663
2023-04-15T03:40:23.271Z,62.6194
2023-04-15T03:41:23.559Z,62.6541
2023-04-15T03:42:23.859Z,62.6525
2023-04-15T03:43:24.234Z,62.5819
2023-04-15T03:44:24.501Z,62.4993
2023-04-15T03:45:24.818Z,62.4141
2023-04-15T03:46:25.189Z,62.3361
2023-04-15T03:47:25.589Z,62.2700
2023-04-15T03:48:25.901Z,62.2322
2023-04-15T03:49:26.241Z,62.2455
2023-04-15T03:50:26.559Z,62.3588
2023-04-15T03:51:26.889Z,62.4195
2023-04-15T03:52:27.165Z,62.4255
2023-04-15T03:53:27.561Z,62.5533
2023-04-15T03:54:27.868Z,63.0070
2023-04-15T03:55:28.212Z,63.1714
2023-04-15T03:56:28.718Z,63.2540
2023-04-15T03:57:29.297Z,63.2447
2023-04-15T03:58:29.615Z,63.2615
2023-04-15T03:59:29.981Z,63.2984
2023-04-15T04:00:30.294Z,63.2928
2023-04-15T04:01:30.714Z,63.3215
2023-04-15T04:02:31.114Z,63.3569
2023-04-15T04:03:31.671Z,63.3620
2023-04-15T04:04:32.184Z,63.2950
2023-04-15T04:05:32.817Z,63.2693
2023-04-15T04:06:33.318Z,63.2766
2023-04-15T04:07:33.673Z,63.3155
2023-04-15T04:08:33.977Z,63.2993
2023-04-15T04:09:34.314Z,63.3827
2023-04-15T04:10:34.617Z,63.5069
2023-04-15T04:11:36.353Z,63.5459
2023-04-15T04:12:36.646Z,63.6303
2023-04-15T04:13:36.970Z,63.7214
2023-04-15T04:14:37.290Z,63.7497
2023-04-15T04:15:37.757Z,63.7665
2023-04-15T04:16:38.119Z,63.7537
2023-04-15T04:17:38.431Z,63.8229
2023-04-15T04:18:38.743Z,63.8421
2023-04-15T04:19:39.038Z,63.8089
2023-04-15T04:20:39.366Z,63.8410
2023-04-15T04:21:39.730Z,63.8604
2023-04-15T04:22:40.112Z,63.8562
2023-04-15T04:23:40.467Z,64.0330
2023-04-15T04:24:40.742Z,64.1670
2023-04-15T04:25:41.052Z,64.2099
2023-04-15T04:26:41.357Z,64.1962
2023-04-15T04:27:41.648Z,64.1830
2023-04-15T04:28:41.930Z,64.2031
2023-04-15T04:29:42.269Z,64.1857
2023-04-15T04:30:42.605Z,64.1874
2023-04-15T04:31:42.932Z,64.2522
2023-04-15T04:32:43.300Z,64.2459
2023-04-15T04:33:43.593Z,64.1642
2023-04-15T04:34:43.948Z,64.1726
2023-04-15T04:35:44.321Z,64.1716
2023-04-15T04:36:44.660Z,64.1005
2023-04-15T04:37:45.027Z,64.1210
2023-04-15T04:38:45.327Z,64.2065
2023-04-15T04:39:45.669Z,64.1656
2023-04-15T04:40:46.011Z,64.1104
2023-04-15T04:41:46.359Z,64.0442
2023-04-15T04:42:46.687Z,63.9408
2023-04-15T04:43:47.007Z,63.8652
2023-04-15T04:44:47.309Z,63.8000
2023-04-15T04:45:47.714Z,63.7271
2023-04-15T04:46:48.023Z,63.6690
2023-04-15T04:47:48.331Z,63.6256
2023-04-15T04:48:48.684Z,63.5736
2023-04-15T04:49:49.013Z,63.5444
2023-04-15T04:50:49.374Z,63.5060
2023-04-15T04:51:49.629Z,63.4583
2023-04-15T04:52:49.987Z,63.3997
2023-04-15T04:53:50.322Z,63.3359
2023-04-15T04:54:50.640Z,63.2998
2023-04-15T04:55:50.976Z,63.3045
2023-04-15T04:56:51.325Z,63.2420
2023-04-15T04:57:51.699Z,63.1257
2023-04-15T04:58:52.055Z,63.0048
2023-04-15T04:59:52.354Z,62.9660
2023-04-15T05:00:52.697Z,62.9328
2023-04-15T05:01:53.056Z,62.8947
2023-04-15T05:02:53.538Z,62.8430
2023-04-15T05:03:54.135Z,62.7802
2023-04-15T05:04:54.590Z,62.7285
2023-04-15T05:05:54.966Z,62.7054
2023-04-15T05:06:55.336Z,62.7331
2023-04-15T05:07:55.756Z,62.7420
2023-04-15T05:08:56.049Z,62.8451
2023-04-15T05:09:56.397Z,62.8799
2023-04-15T05:10:56.741Z,62.8347
2023-04-15T05:11:57.049Z,62.8389
2023-04-15T05:12:57.384Z,62.8423
2023-04-15T05:13:57.707Z,62.8306
2023-04-15T05:14:58.079Z,62.8113
2023-04-15T05:15:58.440Z,62.7616
2023-04-15T05:16:58.762Z,62.7526
2023-04-15T05:17:59.194Z,62.9334
2023-04-15T05:18:59.632Z,63.1038
2023-04-15T05:20:00.211Z,63.1460
2023-04-15T05:21:00.563Z,63.1837
2023-04-15T05:22:00.872Z,63.1775
2023-04-15T05:23:01.244Z,63.2309
2023-04-15T05:24:01.553Z,63.2526
2023-04-15T05:25:01.884Z,63.3522
2023-04-15T05:26:02.218Z,63.4036
2023-04-15T05:27:02.590Z,63.3911
2023-04-15T05:28:03.008Z,63.3760
2023-04-15T05:29:03.457Z,63.3538
2023-04-15T05:30:03.947Z,63.3208
2023-04-15T05:31:04.321Z,63.2659
2023-04-15T05:32:04.652Z,63.2678
2023-04-15T05:33:05.105Z,63.2467
2023-04-15T05:34:05.512Z,63.2240
2023-04-15T05:35:05.839Z,63.1730
2023-04-15T05:36:06.172Z,63.1644
2023-04-15T05:37:06.507Z,63.1783
2023-04-15T05:38:06.857Z,63.1671
2023-04-15T05:39:07.222Z,63.1122
2023-04-15T05:40:07.590Z,63.0284
2023-04-15T05:41:07.888Z,62.9616
2023-04-15T05:42:08.260Z,62.9041
2023-04-15T05:43:08.605Z,62.9220
2023-04-15T05:44:08.896Z,63.0071
2023-04-15T05:45:09.307Z,63.0884
2023-04-15T05:46:09.736Z,63.0944
2023-04-15T05:47:10.026Z,63.0486
2023-04-15T05:48:10.443Z,63.0342
2023-04-15T05:49:10.814Z,62.9834
2023-04-15T05:50:11.160Z,62.9199
2023-04-15T05:51:11.640Z,62.8766
2023-04-15T05:52:11.964Z,62.8871
2023-04-15T05:53:12.280Z,62.8446
2023-04-15T05:54:12.585Z,62.8012
2023-04-15T05:55:12.916Z,62.7221
2023-04-15T05:56:13.242Z,62.6954
2023-04-15T05:57:13.562Z,62.6821
2023-04-15T05:58:13.887Z,62.6143
2023-04-15T05:59:14.177Z,62.5611
2023-04-15T06:00:14.569Z,62.5050
2023-04-15T06:01:14.892Z,62.4962
2023-04-15T06:02:15.335Z,62.5684
2023-04-15T06:03:15.704Z,62.6697
2023-04-15T06:04:16.028Z,62.6564
2023-04-15T06:05:16.372Z,62.5217
2023-04-15T06:06:16.890Z,62.3355
2023-04-15T06:07:17.288Z,62.2347
2023-04-15T06:08:17.615Z,62.1835
2023-04-15T06:09:17.885Z,62.1080
2023-04-15T06:10:18.164Z,62.0506
2023-04-15T06:11:18.437Z,61.9966
2023-04-15T06:12:18.867Z,61.9545
2023-04-15T06:13:19.127Z,61.9118
2023-04-15T06:14:19.423Z,61.9146
2023-04-15T06:15:19.797Z,61.8992
2023-04-15T06:16:20.081Z,61.8929
2023-04-15T06:17:20.451Z,61.8829
2023-04-15T06:18:20.702Z,61.8764
2023-04-15T06:19:21.149Z,61.8637
2023-04-15T06:20:21.397Z,61.8079
2023-04-15T06:21:21.740Z,61.7512
2023-04-15T06:22:22.091Z,61.7090
2023-04-15T06:23:22.411Z,61.6560
2023-04-15T06:24:22.732Z,61.5965
2023-04-15T06:25:23.047Z,61.5348
2023-04-15T06:26:23.321Z,61.4690
2023-04-15T06:27:23.654Z,61.3093
2023-04-15T06:28:23.940Z,61.1848
2023-04-15T06:29:24.251Z,60.9879
2023-04-15T06:30:24.639Z,60.8913
2023-04-15T06:31:24.973Z,60.8585
2023-04-15T06:32:25.297Z,60.8189
2023-04-15T06:33:25.597Z,60.7931
2023-04-15T06:34:25.941Z,60.8600
2023-04-15T06:35:26.241Z,60.8709
2023-04-15T06:36:26.608Z,60.8170
2023-04-15T06:37:26.914Z,60.7794
2023-04-15T06:38:27.334Z,60.7649
2023-04-15T06:39:27.661Z,60.7147
2023-04-15T06:40:27.996Z,60.6005
2023-04-15T06:41:28.255Z,60.4904
2023-04-15T06:42:28.575Z,60.4634
2023-04-15T06:43:28.907Z,60.4291
2023-04-15T06:44:29.268Z,60.3992
2023-04-15T06:45:29.678Z,60.3162
2023-04-15T06:46:30.005Z,60.2202
2023-04-15T06:47:30.370Z,60.1521
2023-04-15T06:48:30.794Z,59.9657
2023-04-15T06:49:31.146Z,59.8375
2023-04-15T06:50:31.517Z,59.6989
2023-04-15T06:51:31.839Z,59.5758
2023-04-15T06:52:32.184Z,59.5123
2023-04-15T06:53:32.617Z,59.4522
2023-04-15T06:54:32.943Z,59.3958
2023-04-15T06:55:33.295Z,59.3261
2023-04-15T06:56:33.629Z,59.0024
2023-04-15T06:57:35.160Z,58.7805
2023-04-15T06:58:35.603Z,58.7886
2023-04-15T06:59:36.132Z,58.7463
2023-04-15T07:00:36.467Z,58.6454
2023-04-15T07:01:36.903Z,58.5669
2023-04-15T07:02:37.319Z,58.5141
2023-04-15T07:03:37.768Z,58.4751
2023-04-15T07:04:38.351Z,58.3950
2023-04-15T07:05:38.745Z,58.2802
2023-04-15T07:06:39.242Z,58.1316
2023-04-15T07:07:39.594Z,58.0695
2023-04-15T07:08:39.902Z,58.0756
2023-04-15T07:09:40.328Z,58.1022
2023-04-15T07:10:40.600Z,58.0972
2023-04-15T07:11:40.956Z,58.0399
2023-04-15T07:12:41.274Z,57.9592
2023-04-15T07:13:41.650Z,57.8662
2023-04-15T07:14:41.989Z,57.8160
2023-04-15T07:15:42.319Z,57.7985
2023-04-15T07:16:42.720Z,57.8201
2023-04-15T07:17:43.107Z,57.8157
2023-04-15T07:18:43.473Z,57.8385
2023-04-15T07:19:43.819Z,57.8293
2023-04-15T07:20:44.111Z,57.7149
2023-04-15T07:21:44.470Z,57.7168
2023-04-15T07:22:44.805Z,57.6916
2023-04-15T07:23:45.174Z,57.9121
2023-04-15T07:24:45.583Z,58.0971
2023-04-15T07:25:45.934Z,58.1506
2023-04-15T07:26:46.299Z,58.1582
2023-04-15T07:27:46.624Z,58.1948
2023-04-15T07:28:46.968Z,58.2732
2023-04-15T07:29:47.399Z,58.3886
2023-04-15T07:30:47.818Z,58.4869
2023-04-15T07:31:48.196Z,58.7393
2023-04-15T07:32:48.529Z,58.9030
2023-04-15T07:33:48.962Z,58.9392
2023-04-15T07:34:49.358Z,59.1696
2023-04-15T07:35:49.750Z,59.2913
2023-04-15T07:36:50.075Z,59.3505
2023-04-15T07:37:50.437Z,59.3309
2023-04-15T07:38:50.836Z,59.4154
2023-04-15T07:39:51.325Z,59.5676
2023-04-15T07:40:51.676Z,59.8161
2023-04-15T07:41:52.141Z,59.7702
2023-04-15T07:42:52.515Z,59.8256
2023-04-15T07:43:52.838Z,59.9549
2023-04-15T07:44:53.242Z,60.0415
2023-04-15T07:45:53.642Z,60.0987
2023-04-15T07:46:54.035Z,60.1575
2023-04-15T07:47:54.401Z,60.1755
2023-04-15T07:48:54.745Z,60.2268
2023-04-15T07:49:55.095Z,60.2496
2023-04-15T07:50:55.445Z,60.2680
2023-04-15T07:51:55.791Z,60.2907
2023-04-15T07:52:56.128Z,60.2927
2023-04-15T07:53:56.492Z,60.2556
2023-04-15T07:54:56.811Z,60.3218
2023-04-15T07:55:57.188Z,60.4664
2023-04-15T07:56:57.569Z,60.5862
2023-04-15T07:57:57.907Z,60.6550
2023-04-15T07:58:58.292Z,60.6592
2023-04-15T07:59:58.593Z,60.6022
2023-04-15T08:00:58.963Z,60.5285
2023-04-15T08:01:59.335Z,60.4963
2023-04-15T08:02:59.819Z,60.4845
2023-04-15T08:04:00.763Z,60.4258
2023-04-15T08:05:01.265Z,60.4272
2023-04-15T08:06:01.590Z,60.4735
2023-04-15T08:07:01.943Z,60.4321
2023-04-15T08:08:02.293Z,60.3519
2023-04-15T08:09:02.885Z,60.2765
2023-04-15T08:10:03.317Z,60.2006
2023-04-15T08:11:03.662Z,60.0686
2023-04-15T08:12:04.022Z,60.0452
2023-04-15T08:13:04.352Z,60.0202
2023-04-15T08:14:04.696Z,59.9504
2023-04-15T08:15:04.996Z,59.9120
2023-04-15T08:16:05.415Z,59.8753
2023-04-15T08:17:05.792Z,59.8384
2023-04-15T08:18:06.107Z,59.7382
2023-04-15T08:19:06.471Z,59.5444
2023-04-15T08:20:06.839Z,59.4490
2023-04-15T08:21:07.170Z,59.3206
2023-04-15T08:22:15.636Z,59.2522
2023-04-15T08:23:08.562Z,59.0159
2023-04-15T08:24:08.905Z,58.9228
2023-04-15T08:25:09.237Z,58.8370
2023-04-15T08:26:09.563Z,58.6464
2023-04-15T08:27:09.907Z,58.5135
2023-04-15T08:28:10.225Z,58.1136
2023-04-15T08:29:10.558Z,57.8374
2023-04-15T08:30:10.912Z,57.8922
2023-04-15T08:31:11.256Z,57.9040
2023-04-15T08:32:11.695Z,57.4776
2023-04-15T08:33:12.026Z,56.9348
2023-04-15T08:34:12.375Z,56.8894
2023-04-15T08:35:12.698Z,56.9009
2023-04-15T08:36:13.044Z,56.8753
2023-04-15T08:37:13.469Z,56.9076
2023-04-15T08:38:13.833Z,56.9189
2023-04-15T08:39:14.210Z,56.9478
2023-04-15T08:40:14.548Z,56.9689
2023-04-15T08:41:14.854Z,56.9250
2023-04-15T08:42:15.217Z,56.7214
2023-04-15T08:43:15.570Z,56.6870
2023-04-15T08:44:15.903Z,56.5354
2023-04-15T08:45:16.334Z,56.4160
2023-04-15T08:46:16.681Z,56.4495
2023-04-15T08:47:17.047Z,56.4692
2023-04-15T08:48:17.418Z,56.3620
2023-04-15T08:49:17.765Z,56.2351
2023-04-15T08:50:18.088Z,56.1729
2023-04-15T08:51:18.395Z,56.0749
2023-04-15T08:52:18.757Z,56.0185
2023-04-15T08:53:19.079Z,56.0017
2023-04-15T08:54:19.437Z,55.8772
2023-04-15T08:55:19.730Z,55.6905
2023-04-15T08:56:20.042Z,55.6068
2023-04-15T08:57:20.454Z,55.5102
2023-04-15T08:58:20.799Z,55.3420
2023-04-15T08:59:21.163Z,55.1016
2023-04-15T09:00:21.437Z,55.0454
2023-04-15T09:01:21.873Z,54.8320
2023-04-15T09:02:22.424Z,54.7115
2023-04-15T09:03:23.064Z,54.7617
2023-04-15T09:04:23.420Z,54.8182
2023-04-15T09:05:23.764Z,54.9833
2023-04-15T09:06:24.084Z,55.2298
2023-04-15T09:07:24.472Z,55.5206
2023-04-15T09:08:24.871Z,55.9337
2023-04-15T09:09:25.334Z,56.3552
2023-04-15T09:10:25.677Z,56.8025
2023-04-15T09:11:26.052Z,57.0297
2023-04-15T09:12:26.316Z,57.2929
2023-04-15T09:13:26.662Z,57.7861
2023-04-15T09:14:26.987Z,58.5588
2023-04-15T09:15:27.320Z,59.5956
2023-04-15T09:16:27.682Z,59.6457
2023-04-15T09:17:28.128Z,60.2044
2023-04-15T09:18:28.400Z,60.3055
2023-04-15T09:19:28.732Z,60.4549
2023-04-15T09:20:29.077Z,60.3443
2023-04-15T09:21:29.373Z,60.2074
2023-04-15T09:22:29.708Z,60.1740
2023-04-15T09:23:30.155Z,60.3253
2023-04-15T09:24:30.510Z,60.3782
2023-04-15T09:25:32.776Z,60.4273
2023-04-15T09:26:31.280Z,60.4131
2023-04-15T09:27:31.607Z,60.3976
2023-04-15T09:28:31.942Z,60.5236
2023-04-15T09:29:32.331Z,60.7767
2023-04-15T09:30:32.692Z,61.0441
2023-04-15T09:31:33.026Z,61.1507
2023-04-15T09:32:33.352Z,61.1326
2023-04-15T09:33:34.179Z,60.9607
2023-04-15T09:34:34.551Z,60.9376
2023-04-15T09:35:34.879Z,60.2362
2023-04-15T09:36:35.169Z,59.6339
2023-04-15T09:37:35.546Z,59.3766
2023-04-15T09:38:35.951Z,59.3116
2023-04-15T09:39:36.326Z,59.2771
2023-04-15T09:40:36.691Z,59.2448
2023-04-15T09:41:37.184Z,59.1482
2023-04-15T09:42:37.610Z,59.2163
2023-04-15T09:43:38.083Z,59.2790
2023-04-15T09:44:38.400Z,59.2625
2023-04-15T09:45:38.741Z,59.1809
2023-04-15T09:46:39.071Z,59.1311
2023-04-15T09:47:39.386Z,59.1227
2023-04-15T09:48:39.701Z,59.2776
2023-04-15T09:49:40.045Z,59.2700
2023-04-15T09:50:40.366Z,59.2438
2023-04-15T09:51:41.294Z,59.0291
2023-04-15T09:52:41.724Z,58.7955
2023-04-15T09:53:42.160Z,58.7371
2023-04-15T09:54:42.500Z,58.5912
2023-04-15T09:55:42.887Z,58.3032
2023-04-15T09:56:43.254Z,57.6322
2023-04-15T09:57:44.572Z,56.8661
2023-04-15T09:58:44.994Z,56.4204
2023-04-15T09:59:45.300Z,56.0020
2023-04-15T10:00:45.616Z,55.4476
2023-04-15T10:01:46.162Z,55.0836
2023-04-15T10:02:46.607Z,55.0842
2023-04-15T10:03:47.089Z,55.5562
2023-04-15T10:04:47.430Z,56.3151
2023-04-15T10:05:47.833Z,56.6787
2023-04-15T10:06:48.132Z,56.7939
2023-04-15T10:07:48.496Z,56.7550
2023-04-15T10:08:48.967Z,56.6315
2023-04-15T10:09:49.379Z,56.6323
2023-04-15T10:10:49.706Z,56.6863
2023-04-15T10:11:50.117Z,56.7618
2023-04-15T10:12:50.428Z,56.9119
2023-04-15T10:13:50.775Z,56.9833
2023-04-15T10:14:51.059Z,57.0100
2023-04-15T10:15:51.437Z,57.0127
2023-04-15T10:16:51.847Z,57.0997
2023-04-15T10:17:52.457Z,57.1442
2023-04-15T10:18:52.831Z,57.3237
2023-04-15T10:19:53.200Z,57.5297
2023-04-15T10:20:53.517Z,57.8540
2023-04-15T10:21:53.868Z,57.9514
2023-04-15T10:22:54.229Z,57.9803
2023-04-15T10:23:54.587Z,57.9234
2023-04-15T10:24:54.912Z,58.0900
2023-04-15T10:25:55.282Z,58.1518
2023-04-15T10:26:55.688Z,58.3263
2023-04-15T10:27:56.060Z,58.4712
2023-04-15T10:28:56.946Z,58.4855
2023-04-15T10:29:58.255Z,58.6183
2023-04-15T10:30:59.147Z,58.7654
2023-04-15T10:31:59.673Z,58.8008
2023-04-15T10:33:00.280Z,58.8111
2023-04-15T10:34:01.014Z,58.6257
2023-04-15T10:35:01.512Z,58.4672
2023-04-15T10:36:02.076Z,58.5513
2023-04-15T10:37:02.360Z,58.4876
2023-04-15T10:38:02.712Z,58.5969
2023-04-15T10:39:03.066Z,58.9515
2023-04-15T10:40:05.535Z,59.2500
2023-04-15T10:41:05.931Z,59.2480
2023-04-15T10:42:06.394Z,59.0858
2023-04-15T10:43:06.735Z,58.9621
2023-04-15T10:44:07.093Z,58.7231
2023-04-15T10:45:07.413Z,58.6586
2023-04-15T10:46:07.759Z,58.5809
2023-04-15T10:47:08.059Z,58.5055
2023-04-15T10:48:08.443Z,58.6346
2023-04-15T10:49:08.789Z,58.9271
2023-04-15T10:50:09.145Z,58.7175
2023-04-15T10:51:09.462Z,58.8211
2023-04-15T10:52:09.812Z,59.2087
2023-04-15T10:53:10.105Z,59.5815
2023-04-15T10:54:10.440Z,59.9668
2023-04-15T10:55:10.742Z,60.6629
2023-04-15T10:56:11.085Z,60.7895
2023-04-15T10:57:11.383Z,61.0217
2023-04-15T10:58:11.735Z,61.1952
2023-04-15T10:59:12.101Z,60.8678
2023-04-15T11:00:12.490Z,60.8508
2023-04-15T11:01:12.793Z,60.7307
2023-04-15T11:02:13.262Z,60.5630
2023-04-15T11:03:13.710Z,61.3773
2023-04-15T11:04:14.260Z,61.9703
2023-04-15T11:05:14.566Z,61.9888
2023-04-15T11:06:14.921Z,62.2975
2023-04-15T11:07:15.250Z,61.6600
2023-04-15T11:08:15.569Z,60.5751
2023-04-15T11:09:15.967Z,60.4897
2023-04-15T11:10:16.292Z,60.5763
2023-04-15T11:11:16.634Z,61.0220
2023-04-15T11:12:17.002Z,61.1615
2023-04-15T11:13:17.433Z,59.8402
2023-04-15T11:14:17.895Z,59.6310
2023-04-15T11:15:18.252Z,59.7818
2023-04-15T11:16:18.657Z,59.7658
2023-04-15T11:17:18.931Z,59.8360
2023-04-15T11:18:19.277Z,60.1647
2023-04-15T11:19:19.639Z,60.5319
2023-04-15T11:20:19.958Z,60.5973
2023-04-15T11:21:20.260Z,60.2693
2023-04-15T11:22:20.617Z,60.5907
2023-04-15T11:23:20.889Z,60.7528
2023-04-15T11:24:21.269Z,61.1332
2023-04-15T11:25:22.249Z,61.5612
2023-04-15T11:26:22.591Z,61.4676
2023-04-15T11:27:22.961Z,61.4973
2023-04-15T11:28:23.352Z,61.1113
2023-04-15T11:29:23.757Z,61.2523
2023-04-15T11:30:24.194Z,61.6066
2023-04-15T11:31:24.620Z,62.0073
2023-04-15T11:32:25.298Z,62.8260
2023-04-15T11:33:25.991Z,63.5552
2023-04-15T11:34:26.411Z,63.7815
2023-04-15T11:35:26.785Z,63.7796
2023-04-15T11:36:27.200Z,63.7711
2023-04-15T11:37:27.532Z,63.6425
2023-04-15T11:38:27.874Z,63.3049
2023-04-15T11:39:28.303Z,62.8959
2023-04-15T11:40:28.654Z,62.8505
2023-04-15T11:41:29.030Z,62.8090
2023-04-15T11:42:39.280Z,62.7223
2023-04-15T11:43:30.658Z,62.8876
2023-04-15T11:44:31.103Z,63.2725
2023-04-15T11:45:31.515Z,63.3979
2023-04-15T11:46:32.240Z,63.8122
2023-04-15T11:47:32.945Z,64.0607
2023-04-15T11:48:33.405Z,64.3347
2023-04-15T11:49:33.771Z,64.5291
2023-04-15T11:50:34.197Z,64.7051
2023-04-15T11:51:34.571Z,64.6947
2023-04-15T11:52:34.985Z,64.6961
2023-04-15T11:53:35.373Z,64.6749
2023-04-15T11:54:35.777Z,64.8555
2023-04-15T11:55:36.208Z,65.2683
2023-04-15T11:56:36.584Z,66.0481
2023-04-15T11:57:36.983Z,66.1084
2023-04-15T11:58:37.371Z,66.1015
2023-04-15T11:59:45.446Z,66.0958
2023-04-15T12:00:38.829Z,65.0989
2023-04-15T12:01:39.219Z,64.6674
2023-04-15T12:02:39.669Z,64.5544
2023-04-15T12:03:40.277Z,64.8895
2023-04-15T12:04:41.208Z,64.3690
2023-04-15T12:05:41.891Z,63.4562
2023-04-15T12:06:42.310Z,63.0429
2023-04-15T12:07:42.680Z,63.0242
2023-04-15T12:08:43.048Z,63.2908
2023-04-15T12:09:43.417Z,63.1709